Fesco Vladimir — 5BSL2 — position and weather

sailwx.info

Track history (hours):
 
Tides and Currents Weather Stations Pressure Air Temp Water Temp Dewpoint Dewpoint Depression Visibility Wind Speed Wind Dir Waves Ship Positions

Fesco Vladimir

Last reported at 2016-Jun-30 15:33 UTC. Time now 2016-Jun-30 15:59 UTC.
Position N 60°01' E 028°34'.

Length 184 m; draft 9 m.

Type: Ship (hazmat cat A). MMSI: 209777000.

Date/timePositionNaut miles runAvg speedWind from/ knotsBaromVisibWave heightAir tempDewpointWater temp
2016-Jun-30 15:33N 60°01' E 028°34'1514.9
2016-Jun-30 14:33N 60°08' E 028°07'1312.7
2016-Jun-30 13:33N 60°09' E 027°42'1414.0
2016-Jun-30 12:33N 60°02' E 027°17'1313.2
2016-Jun-30 11:34N 59°58' E 026°52'1413.6
2016-Jun-30 10:33N 59°57' E 026°25'1312.7
2016-Jun-30 09:33N 59°54' E 026°01'1612.0
2016-Jun-30 08:14N 59°50' E 025°30'2112.4
2016-Jun-30 06:33N 59°45' E 024°50'1312.8
2016-Jun-30 05:32N 59°43' E 024°24'1312.7
2016-Jun-30 04:32N 59°39' E 024°00'1212.6
2016-Jun-30 03:33N 59°35' E 023°37'1212.5
2016-Jun-30 02:33N 59°31' E 023°14'1312.5
2016-Jun-30 01:33N 59°27' E 022°50'16110.6
2016-Jun-29 10:22N 57°26' E 019°27'1213.3
2016-Jun-29 09:28N 57°16' E 019°13'1313.8
2016-Jun-29 08:31N 57°06' E 018°59'3 3.5
2016-Jun-29 07:34N 57°04' E 018°54'1312.6
2016-Jun-29 06:34N 56°53' E 018°42'1313.3
2016-Jun-29 05:33N 56°45' E 018°23'2913.2
2016-Jun-29 03:24N 56°27' E 017°42'2613.3
2016-Jun-29 01:28N 56°11' E 017°05'5213.4
2016-Jun-28 21:33N 55°44' E 015°46'1313.5
2016-Jun-28 20:34N 55°37' E 015°25'1414.0
2016-Jun-28 19:33N 55°30' E 015°03'1414.0
2016-Jun-28 18:33N 55°23' E 014°42'1413.6
2016-Jun-28 17:33N 55°13' E 014°26'1413.9
2016-Jun-28 16:33N 55°02' E 014°11'1413.9
2016-Jun-28 15:33N 54°57' E 013°48'4413.5
2016-Jun-28 12:18N 54°42' E 012°37'1013.7
2016-Jun-28 11:33N 54°36' E 012°22'1413.5
2016-Jun-28 10:33N 54°24' E 012°10'1313.2
2016-Jun-28 09:33N 54°25' E 011°48'1313.3
2016-Jun-28 08:33N 54°31' E 011°27'1313.0
2016-Jun-28 07:33N 54°35' E 011°06'1313.5
2016-Jun-28 06:33N 54°34' E 010°43'2311.3
2016-Jun-28 04:33N 54°22' E 010°10'3 2.5
2016-Jun-28 03:33N 54°22' E 010°06'5 5.4
2016-Jun-28 02:33N 54°20' E 009°57'5 5.2
2016-Jun-28 01:32N 54°22' E 009°49'12 5.9
2016-Jun-27 23:33N 54°13' E 009°35'7 6.6
2016-Jun-27 22:33N 54°10' E 009°25'6 5.9
2016-Jun-27 21:33N 54°05' E 009°19'7 6.5
2016-Jun-27 20:34N 53°59' E 009°17'3 2.9
2016-Jun-27 19:33N 53°57' E 009°14'0 0.3
2016-Jun-27 18:33N 53°56' E 009°13'4 3.9
2016-Jun-27 17:33N 53°54' E 009°09'1 0.9
2016-Jun-27 16:34N 53°53' E 009°10'8 8.2
2016-Jun-27 15:33N 53°49' E 009°22'1212.4
2016-Jun-27 14:33N 53°38' E 009°32'1212.3
2016-Jun-27 13:33N 53°33' E 009°51'3 2.7
2016-Jun-27 12:33N 53°32' E 009°55'0 0.0
2016-Jun-27 11:33N 53°32' E 009°55'0 0.0
2016-Jun-27 10:33N 53°32' E 009°55'0 0.0
2016-Jun-27 09:33N 53°32' E 009°55'0 0.0
2016-Jun-27 08:33N 53°32' E 009°55'0 0.0
2016-Jun-27 07:33N 53°32' E 009°55'0 0.0
2016-Jun-27 06:33N 53°32' E 009°55'0 0.0
2016-Jun-27 05:33N 53°32' E 009°55'0 0.0
2016-Jun-27 04:33N 53°32' E 009°55'0 0.0
2016-Jun-27 03:33N 53°32' E 009°55'0 0.0
2016-Jun-27 02:33N 53°32' E 009°55'0 0.0
2016-Jun-27 01:33N 53°32' E 009°55'0 0.0
2016-Jun-27 00:33N 53°32' E 009°55'0 0.0
2016-Jun-26 23:33N 53°32' E 009°55'0 0.0
2016-Jun-26 22:33N 53°32' E 009°55'0 0.0
2016-Jun-26 21:33N 53°32' E 009°55'0 0.0
2016-Jun-26 20:33N 53°32' E 009°55'0 0.0
2016-Jun-26 19:33N 53°32' E 009°55'0 0.0
2016-Jun-26 18:33N 53°32' E 009°55'0 0.0
2016-Jun-26 17:33N 53°32' E 009°55'0 0.0
2016-Jun-26 16:33N 53°32' E 009°55'0 0.2
2016-Jun-26 15:33N 53°32' E 009°55'9 8.8
2016-Jun-26 14:34N 53°34' E 009°40'1515.2
2016-Jun-26 13:33N 53°46' E 009°24'1313.0
2016-Jun-26 12:34N 53°52' E 009°05'1413.9
2016-Jun-26 11:34N 53°54' E 008°41'1717.3
2016-Jun-26 10:33N 53°60' E 008°14'1615.7
2016-Jun-26 09:33N 53°57' E 007°47'1918.8
2016-Jun-26 08:33N 53°54' E 007°15'1818.3
2016-Jun-26 07:33N 53°49' E 006°46'1818.0
2016-Jun-26 06:33N 53°44' E 006°16'1818.3
2016-Jun-26 05:34N 53°39' E 005°47'1817.9
2016-Jun-26 04:34N 53°32' E 005°19'1918.3
2016-Jun-26 03:31N 53°26' E 004°49'2217.8
2016-Jun-26 02:18N 53°08' E 004°28'1418.8
2016-Jun-26 01:34N 52°55' E 004°17'1818.1
2016-Jun-26 00:34N 52°40' E 004°02'1817.6
2016-Jun-25 23:33N 52°23' E 003°53'1717.2
2016-Jun-25 22:34N 52°06' E 003°54'1010.1
2016-Jun-25 21:33N 51°58' E 004°05'2 2.3
2016-Jun-25 20:33N 51°59' E 004°02'0 0.0
2016-Jun-25 19:33N 51°59' E 004°02'0 0.0
2016-Jun-25 18:33N 51°59' E 004°02'0 0.0
2016-Jun-25 17:31N 51°59' E 004°02'0 0.0
2016-Jun-25 16:31N 51°59' E 004°02'0 0.0
2016-Jun-25 15:31N 51°59' E 004°02'0 0.0
2016-Jun-25 14:31N 51°59' E 004°02'0 0.0
2016-Jun-25 13:31N 51°59' E 004°02'0 0.0
2016-Jun-25 12:31N 51°59' E 004°02'0 0.0
2016-Jun-25 11:31N 51°59' E 004°02'0 0.0
2016-Jun-25 10:31N 51°59' E 004°02'0 0.0
2016-Jun-25 09:31N 51°59' E 004°02'0 0.0
2016-Jun-25 08:31N 51°59' E 004°02'0 0.0
2016-Jun-25 07:31N 51°59' E 004°02'0 0.0
2016-Jun-25 06:31N 51°59' E 004°02'0 0.0
2016-Jun-25 05:31N 51°59' E 004°02'0 0.0
2016-Jun-25 04:31N 51°59' E 004°02'0 0.0
2016-Jun-25 03:28N 51°59' E 004°02'0 0.0
2016-Jun-25 02:31N 51°59' E 004°02'0 0.0
2016-Jun-25 01:33N 51°59' E 004°02'2 2.1
2016-Jun-25 00:31N 51°57' E 004°05'0 0.0
2016-Jun-24 23:33N 51°57' E 004°05'0 0.0
2016-Jun-24 22:33N 51°57' E 004°05'0 0.0
2016-Jun-24 21:33N 51°57' E 004°05'0 0.0
2016-Jun-24 20:33N 51°57' E 004°05'0 0.0
2016-Jun-24 19:33N 51°57' E 004°05'0 0.0
2016-Jun-24 18:33N 51°57' E 004°05'0 0.0
2016-Jun-24 17:33N 51°57' E 004°05'0 0.0
2016-Jun-24 16:33N 51°57' E 004°05'0 0.3
2016-Jun-24 15:32N 51°57' E 004°04'0 0.0
2016-Jun-24 14:32N 51°57' E 004°04'0 0.0
2016-Jun-24 13:32N 51°57' E 004°04'0 0.0
2016-Jun-24 12:32N 51°57' E 004°04'0 0.0
2016-Jun-24 11:32N 51°57' E 004°04'0 0.0
2016-Jun-24 10:32N 51°57' E 004°04'0 0.0
2016-Jun-24 09:32N 51°57' E 004°04'0 0.0
2016-Jun-24 08:32N 51°57' E 004°04'0 0.0
2016-Jun-24 07:32N 51°57' E 004°04'0 0.0
2016-Jun-24 06:34N 51°57' E 004°04'12 5.9
2016-Jun-24 04:33N 52°02' E 003°47'4 4.4
2016-Jun-24 03:33N 52°07' E 003°48'1 1.3
2016-Jun-24 02:33N 52°08' E 003°46'1212.0
2016-Jun-24 01:33N 52°20' E 003°47'1616.0
2016-Jun-24 00:33N 52°35' E 003°52'1716.6
2016-Jun-23 23:33N 52°52' E 003°58'1616.0
2016-Jun-23 22:33N 53°05' E 004°14'1515.3
2016-Jun-23 21:33N 53°17' E 004°28'1515.0
2016-Jun-23 20:33N 53°31' E 004°37'1515.2
2016-Jun-23 19:33N 53°46' E 004°46'1717.1
2016-Jun-23 18:33N 54°02' E 004°55'1918.6
2016-Jun-23 17:33N 54°19' E 005°07'2018.7
2016-Jun-23 16:31N 54°36' E 005°22'20216.9
2016-Jun-23 04:33N 57°24' E 008°44'1816.9
2016-Jun-23 03:30N 57°35' E 009°09'1616.6
2016-Jun-23 02:31N 57°42' E 009°37'2216.4
2016-Jun-23 01:11N 57°47' E 010°16'1016.1
2016-Jun-23 00:33N 57°48' E 010°35'1616.4
2016-Jun-22 23:33N 57°40' E 011°02'1817.7
2016-Jun-22 22:33N 57°28' E 011°26'1717.4
2016-Jun-22 21:33N 57°12' E 011°37'1716.9
2016-Jun-22 20:33N 56°56' E 011°47'1414.0
2016-Jun-22 19:33N 56°41' E 011°49'1616.3
2016-Jun-22 18:33N 56°27' E 011°34'2116.2
2016-Jun-22 17:17N 56°10' E 011°15'1515.9
2016-Jun-22 16:19N 55°57' E 011°00'3613.0
2016-Jun-22 13:33N 55°21' E 011°02'1212.0
2016-Jun-22 12:33N 55°09' E 011°03'1312.7
2016-Jun-22 11:33N 54°57' E 010°57'1313.5
2016-Jun-22 10:33N 54°44' E 010°53'1313.4
2016-Jun-22 09:33N 54°36' E 011°11'1313.4
2016-Jun-22 08:34N 54°30' E 011°32'1313.1
2016-Jun-22 07:34N 54°26' E 011°54'1211.6
2016-Jun-22 06:34N 54°29' E 012°13'1212.0
2016-Jun-22 05:34N 54°40' E 012°23'1413.6
2016-Jun-22 04:33N 54°47' E 012°42'1615.8
2016-Jun-22 03:33N 54°53' E 013°08'1615.9
2016-Jun-22 02:33N 54°58' E 013°34'1515.3
2016-Jun-22 01:33N 55°03' E 013°59'1515.1
2016-Jun-22 00:33N 55°14' E 014°18'1615.9
2016-Jun-21 23:34N 55°26' E 014°35'1615.7
2016-Jun-21 22:34N 55°34' E 014°60'1716.5
2016-Jun-21 21:33N 55°42' E 015°25'1717.1
2016-Jun-21 20:34N 55°51' E 015°52'29016.1
2016-Jun-21 02:32N 59°20' E 022°07'1515.7
2016-Jun-21 01:33N 59°29' E 022°32'1615.9
2016-Jun-21 00:33N 59°34' E 023°01'1615.9
2016-Jun-20 23:33N 59°39' E 023°32'1615.9
2016-Jun-20 22:33N 59°44' E 024°02'1615.8
2016-Jun-20 21:33N 59°48' E 024°32'3916.0
2016-Jun-20 19:07N 59°56' E 025°48'1416.0
2016-Jun-20 18:14N 59°59' E 026°16'1116.0
2016-Jun-20 17:33N 60°01' E 026°37'1515.6
2016-Jun-20 16:33N 60°01' E 027°08'1616.2
2016-Jun-20 15:33N 60°09' E 027°36'  
Track history (hours):
 
Tides and Currents Weather Stations Pressure Air Temp Water Temp Dewpoint Dewpoint Depression Visibility Wind Speed Wind Dir Waves Ship Positions

Fesco Vladimir

Last reported at 2016-Jun-30 15:33 UTC. Time now 2016-Jun-30 15:59 UTC.
Position N 60°01' E 028°34'.

Length 184 m; draft 9 m.

Type: Ship (hazmat cat A). MMSI: 209777000.

Date/timePositionNaut miles runAvg speedWind from/ knotsBaromVisibWave heightAir tempDewpointWater temp
2016-Jun-30 15:33N 60°01' E 028°34'1514.9
2016-Jun-30 14:33N 60°08' E 028°07'1312.7
2016-Jun-30 13:33N 60°09' E 027°42'1414.0
2016-Jun-30 12:33N 60°02' E 027°17'1313.2
2016-Jun-30 11:34N 59°58' E 026°52'1413.6
2016-Jun-30 10:33N 59°57' E 026°25'1312.7
2016-Jun-30 09:33N 59°54' E 026°01'1612.0
2016-Jun-30 08:14N 59°50' E 025°30'2112.4
2016-Jun-30 06:33N 59°45' E 024°50'1312.8
2016-Jun-30 05:32N 59°43' E 024°24'1312.7
2016-Jun-30 04:32N 59°39' E 024°00'1212.6
2016-Jun-30 03:33N 59°35' E 023°37'1212.5
2016-Jun-30 02:33N 59°31' E 023°14'1312.5
2016-Jun-30 01:33N 59°27' E 022°50'16110.6
2016-Jun-29 10:22N 57°26' E 019°27'1213.3
2016-Jun-29 09:28N 57°16' E 019°13'1313.8
2016-Jun-29 08:31N 57°06' E 018°59'3 3.5
2016-Jun-29 07:34N 57°04' E 018°54'1312.6
2016-Jun-29 06:34N 56°53' E 018°42'1313.3
2016-Jun-29 05:33N 56°45' E 018°23'2913.2
2016-Jun-29 03:24N 56°27' E 017°42'2613.3
2016-Jun-29 01:28N 56°11' E 017°05'5213.4
2016-Jun-28 21:33N 55°44' E 015°46'1313.5
2016-Jun-28 20:34N 55°37' E 015°25'1414.0
2016-Jun-28 19:33N 55°30' E 015°03'1414.0
2016-Jun-28 18:33N 55°23' E 014°42'1413.6
2016-Jun-28 17:33N 55°13' E 014°26'1413.9
2016-Jun-28 16:33N 55°02' E 014°11'1413.9
2016-Jun-28 15:33N 54°57' E 013°48'4413.5
2016-Jun-28 12:18N 54°42' E 012°37'1013.7
2016-Jun-28 11:33N 54°36' E 012°22'1413.5
2016-Jun-28 10:33N 54°24' E 012°10'1313.2
2016-Jun-28 09:33N 54°25' E 011°48'1313.3
2016-Jun-28 08:33N 54°31' E 011°27'1313.0
2016-Jun-28 07:33N 54°35' E 011°06'1313.5
2016-Jun-28 06:33N 54°34' E 010°43'2311.3
2016-Jun-28 04:33N 54°22' E 010°10'3 2.5
2016-Jun-28 03:33N 54°22' E 010°06'5 5.4
2016-Jun-28 02:33N 54°20' E 009°57'5 5.2
2016-Jun-28 01:32N 54°22' E 009°49'12 5.9
2016-Jun-27 23:33N 54°13' E 009°35'7 6.6
2016-Jun-27 22:33N 54°10' E 009°25'6 5.9
2016-Jun-27 21:33N 54°05' E 009°19'7 6.5
2016-Jun-27 20:34N 53°59' E 009°17'3 2.9
2016-Jun-27 19:33N 53°57' E 009°14'0 0.3
2016-Jun-27 18:33N 53°56' E 009°13'4 3.9
2016-Jun-27 17:33N 53°54' E 009°09'1 0.9
2016-Jun-27 16:34N 53°53' E 009°10'8 8.2
2016-Jun-27 15:33N 53°49' E 009°22'1212.4
2016-Jun-27 14:33N 53°38' E 009°32'1212.3
2016-Jun-27 13:33N 53°33' E 009°51'3 2.7
2016-Jun-27 12:33N 53°32' E 009°55'0 0.0
2016-Jun-27 11:33N 53°32' E 009°55'0 0.0
2016-Jun-27 10:33N 53°32' E 009°55'0 0.0
2016-Jun-27 09:33N 53°32' E 009°55'0 0.0
2016-Jun-27 08:33N 53°32' E 009°55'0 0.0
2016-Jun-27 07:33N 53°32' E 009°55'0 0.0
2016-Jun-27 06:33N 53°32' E 009°55'0 0.0
2016-Jun-27 05:33N 53°32' E 009°55'0 0.0
2016-Jun-27 04:33N 53°32' E 009°55'0 0.0
2016-Jun-27 03:33N 53°32' E 009°55'0 0.0
2016-Jun-27 02:33N 53°32' E 009°55'0 0.0
2016-Jun-27 01:33N 53°32' E 009°55'0 0.0
2016-Jun-27 00:33N 53°32' E 009°55'0 0.0
2016-Jun-26 23:33N 53°32' E 009°55'0 0.0
2016-Jun-26 22:33N 53°32' E 009°55'0 0.0
2016-Jun-26 21:33N 53°32' E 009°55'0 0.0
2016-Jun-26 20:33N 53°32' E 009°55'0 0.0
2016-Jun-26 19:33N 53°32' E 009°55'0 0.0
2016-Jun-26 18:33N 53°32' E 009°55'0 0.0
2016-Jun-26 17:33N 53°32' E 009°55'0 0.0
2016-Jun-26 16:33N 53°32' E 009°55'0 0.2
2016-Jun-26 15:33N 53°32' E 009°55'9 8.8
2016-Jun-26 14:34N 53°34' E 009°40'1515.2
2016-Jun-26 13:33N 53°46' E 009°24'1313.0
2016-Jun-26 12:34N 53°52' E 009°05'1413.9
2016-Jun-26 11:34N 53°54' E 008°41'1717.3
2016-Jun-26 10:33N 53°60' E 008°14'1615.7
2016-Jun-26 09:33N 53°57' E 007°47'1918.8
2016-Jun-26 08:33N 53°54' E 007°15'1818.3
2016-Jun-26 07:33N 53°49' E 006°46'1818.0
2016-Jun-26 06:33N 53°44' E 006°16'1818.3
2016-Jun-26 05:34N 53°39' E 005°47'1817.9
2016-Jun-26 04:34N 53°32' E 005°19'1918.3
2016-Jun-26 03:31N 53°26' E 004°49'2217.8
2016-Jun-26 02:18N 53°08' E 004°28'1418.8
2016-Jun-26 01:34N 52°55' E 004°17'1818.1
2016-Jun-26 00:34N 52°40' E 004°02'1817.6
2016-Jun-25 23:33N 52°23' E 003°53'1717.2
2016-Jun-25 22:34N 52°06' E 003°54'1010.1
2016-Jun-25 21:33N 51°58' E 004°05'2 2.3
2016-Jun-25 20:33N 51°59' E 004°02'0 0.0
2016-Jun-25 19:33N 51°59' E 004°02'0 0.0
2016-Jun-25 18:33N 51°59' E 004°02'0 0.0
2016-Jun-25 17:31N 51°59' E 004°02'0 0.0
2016-Jun-25 16:31N 51°59' E 004°02'0 0.0
2016-Jun-25 15:31N 51°59' E 004°02'0 0.0
2016-Jun-25 14:31N 51°59' E 004°02'0 0.0
2016-Jun-25 13:31N 51°59' E 004°02'0 0.0
2016-Jun-25 12:31N 51°59' E 004°02'0 0.0
2016-Jun-25 11:31N 51°59' E 004°02'0 0.0
2016-Jun-25 10:31N 51°59' E 004°02'0 0.0
2016-Jun-25 09:31N 51°59' E 004°02'0 0.0
2016-Jun-25 08:31N 51°59' E 004°02'0 0.0
2016-Jun-25 07:31N 51°59' E 004°02'0 0.0
2016-Jun-25 06:31N 51°59' E 004°02'0 0.0
2016-Jun-25 05:31N 51°59' E 004°02'0 0.0
2016-Jun-25 04:31N 51°59' E 004°02'0 0.0
2016-Jun-25 03:28N 51°59' E 004°02'0 0.0
2016-Jun-25 02:31N 51°59' E 004°02'0 0.0
2016-Jun-25 01:33N 51°59' E 004°02'2 2.1
2016-Jun-25 00:31N 51°57' E 004°05'0 0.0
2016-Jun-24 23:33N 51°57' E 004°05'0 0.0
2016-Jun-24 22:33N 51°57' E 004°05'0 0.0
2016-Jun-24 21:33N 51°57' E 004°05'0 0.0
2016-Jun-24 20:33N 51°57' E 004°05'0 0.0
2016-Jun-24 19:33N 51°57' E 004°05'0 0.0
2016-Jun-24 18:33N 51°57' E 004°05'0 0.0
2016-Jun-24 17:33N 51°57' E 004°05'0 0.0
2016-Jun-24 16:33N 51°57' E 004°05'0 0.3
2016-Jun-24 15:32N 51°57' E 004°04'0 0.0
2016-Jun-24 14:32N 51°57' E 004°04'0 0.0
2016-Jun-24 13:32N 51°57' E 004°04'0 0.0
2016-Jun-24 12:32N 51°57' E 004°04'0 0.0
2016-Jun-24 11:32N 51°57' E 004°04'0 0.0
2016-Jun-24 10:32N 51°57' E 004°04'0 0.0
2016-Jun-24 09:32N 51°57' E 004°04'0 0.0
2016-Jun-24 08:32N 51°57' E 004°04'0 0.0
2016-Jun-24 07:32N 51°57' E 004°04'0 0.0
2016-Jun-24 06:34N 51°57' E 004°04'12 5.9
2016-Jun-24 04:33N 52°02' E 003°47'4 4.4
2016-Jun-24 03:33N 52°07' E 003°48'1 1.3
2016-Jun-24 02:33N 52°08' E 003°46'1212.0
2016-Jun-24 01:33N 52°20' E 003°47'1616.0
2016-Jun-24 00:33N 52°35' E 003°52'1716.6
2016-Jun-23 23:33N 52°52' E 003°58'1616.0
2016-Jun-23 22:33N 53°05' E 004°14'1515.3
2016-Jun-23 21:33N 53°17' E 004°28'1515.0
2016-Jun-23 20:33N 53°31' E 004°37'1515.2
2016-Jun-23 19:33N 53°46' E 004°46'1717.1
2016-Jun-23 18:33N 54°02' E 004°55'1918.6
2016-Jun-23 17:33N 54°19' E 005°07'2018.7
2016-Jun-23 16:31N 54°36' E 005°22'20216.9
2016-Jun-23 04:33N 57°24' E 008°44'1816.9
2016-Jun-23 03:30N 57°35' E 009°09'1616.6
2016-Jun-23 02:31N 57°42' E 009°37'2216.4
2016-Jun-23 01:11N 57°47' E 010°16'1016.1
2016-Jun-23 00:33N 57°48' E 010°35'1616.4
2016-Jun-22 23:33N 57°40' E 011°02'1817.7
2016-Jun-22 22:33N 57°28' E 011°26'1717.4
2016-Jun-22 21:33N 57°12' E 011°37'1716.9
2016-Jun-22 20:33N 56°56' E 011°47'1414.0
2016-Jun-22 19:33N 56°41' E 011°49'1616.3
2016-Jun-22 18:33N 56°27' E 011°34'2116.2
2016-Jun-22 17:17N 56°10' E 011°15'1515.9
2016-Jun-22 16:19N 55°57' E 011°00'3613.0
2016-Jun-22 13:33N 55°21' E 011°02'1212.0
2016-Jun-22 12:33N 55°09' E 011°03'1312.7
2016-Jun-22 11:33N 54°57' E 010°57'1313.5
2016-Jun-22 10:33N 54°44' E 010°53'1313.4
2016-Jun-22 09:33N 54°36' E 011°11'1313.4
2016-Jun-22 08:34N 54°30' E 011°32'1313.1
2016-Jun-22 07:34N 54°26' E 011°54'1211.6
2016-Jun-22 06:34N 54°29' E 012°13'1212.0
2016-Jun-22 05:34N 54°40' E 012°23'1413.6
2016-Jun-22 04:33N 54°47' E 012°42'1615.8
2016-Jun-22 03:33N 54°53' E 013°08'1615.9
2016-Jun-22 02:33N 54°58' E 013°34'1515.3
2016-Jun-22 01:33N 55°03' E 013°59'1515.1
2016-Jun-22 00:33N 55°14' E 014°18'1615.9
2016-Jun-21 23:34N 55°26' E 014°35'1615.7
2016-Jun-21 22:34N 55°34' E 014°60'1716.5
2016-Jun-21 21:33N 55°42' E 015°25'1717.1
2016-Jun-21 20:34N 55°51' E 015°52'29016.1
2016-Jun-21 02:32N 59°20' E 022°07'1515.7
2016-Jun-21 01:33N 59°29' E 022°32'1615.9
2016-Jun-21 00:33N 59°34' E 023°01'1615.9
2016-Jun-20 23:33N 59°39' E 023°32'1615.9
2016-Jun-20 22:33N 59°44' E 024°02'1615.8
2016-Jun-20 21:33N 59°48' E 024°32'3916.0
2016-Jun-20 19:07N 59°56' E 025°48'1416.0
2016-Jun-20 18:14N 59°59' E 026°16'1116.0
2016-Jun-20 17:33N 60°01' E 026°37'1515.6
2016-Jun-20 16:33N 60°01' E 027°08'1616.2
2016-Jun-20 15:33N 60°09' E 027°36'  

Dump ship's entire track history